createdAt,value
2023-01-06T00:00:16.834Z,0
2023-01-06T00:01:15.084Z,0
2023-01-06T00:02:15.823Z,0
2023-01-06T00:03:15.011Z,0
2023-01-06T00:04:15.575Z,0
2023-01-06T00:05:15.479Z,0
2023-01-06T00:06:15.662Z,0
2023-01-06T00:07:15.214Z,0
2023-01-06T00:08:15.505Z,0.109
2023-01-06T00:09:15.479Z,0
2023-01-06T00:10:15.582Z,0
2023-01-06T00:11:15.053Z,0
2023-01-06T00:12:15.629Z,0
2023-01-06T00:13:15.275Z,0
2023-01-06T00:14:15.357Z,0
2023-01-06T00:15:16.452Z,0
2023-01-06T00:16:16.033Z,0
2023-01-06T00:17:15.694Z,0.219
2023-01-06T00:18:16.325Z,0
2023-01-06T00:19:15.408Z,0
2023-01-06T00:20:15.886Z,0
2023-01-06T00:21:15.645Z,0
2023-01-06T00:22:15.954Z,0
2023-01-06T00:23:15.529Z,0
2023-01-06T00:24:16.247Z,0
2023-01-06T00:25:15.868Z,0
2023-01-06T00:26:15.365Z,0
2023-01-06T00:27:15.462Z,0
2023-01-06T00:28:16.115Z,0
2023-01-06T00:29:15.431Z,0
2023-01-06T00:30:16.767Z,0
2023-01-06T00:31:15.490Z,0
2023-01-06T00:32:15.119Z,0.219
2023-01-06T00:33:15.808Z,0
2023-01-06T00:34:15.500Z,0.340
2023-01-06T00:35:16.226Z,0.219
2023-01-06T00:36:16.011Z,0.680
2023-01-06T00:37:15.396Z,0
2023-01-06T00:38:15.735Z,0
2023-01-06T00:39:15.311Z,0
2023-01-06T00:40:15.875Z,0
2023-01-06T00:41:15.819Z,0
2023-01-06T00:42:15.502Z,0
2023-01-06T00:43:15.168Z,0
2023-01-06T00:44:15.920Z,0
2023-01-06T00:45:16.128Z,0
2023-01-06T00:46:15.312Z,0
2023-01-06T00:47:16.175Z,0
2023-01-06T00:48:16.198Z,0
2023-01-06T00:49:15.992Z,0
2023-01-06T00:50:16.026Z,0
2023-01-06T00:51:15.411Z,0
2023-01-06T00:52:14.683Z,0
2023-01-06T00:53:15.505Z,0
2023-01-06T00:54:15.408Z,0
2023-01-06T00:55:15.540Z,0
2023-01-06T00:56:15.537Z,0
2023-01-06T00:57:15.855Z,0
2023-01-06T00:58:15.347Z,0
2023-01-06T00:59:16.366Z,0
2023-01-06T01:00:17.299Z,0
2023-01-06T01:01:18.634Z,0.219
2023-01-06T01:02:16.095Z,0
2023-01-06T01:03:16.258Z,0
2023-01-06T01:04:16.021Z,0
2023-01-06T01:05:16.060Z,0
2023-01-06T01:06:15.675Z,0
2023-01-06T01:07:15.491Z,0
2023-01-06T01:08:15.999Z,0
2023-01-06T01:09:15.831Z,0
2023-01-06T01:10:15.631Z,0
2023-01-06T01:11:15.837Z,0
2023-01-06T01:12:15.578Z,0.109
2023-01-06T01:13:15.011Z,0.219
2023-01-06T01:14:15.870Z,0.109
2023-01-06T01:15:16.193Z,0.109
2023-01-06T01:16:15.829Z,0
2023-01-06T01:17:15.741Z,0
2023-01-06T01:18:15.299Z,0
2023-01-06T01:19:16.086Z,0
2023-01-06T01:20:15.713Z,0
2023-01-06T01:21:15.372Z,0
2023-01-06T01:22:15.908Z,0
2023-01-06T01:23:15.657Z,0
2023-01-06T01:24:15.694Z,0
2023-01-06T01:25:15.917Z,0
2023-01-06T01:26:15.455Z,0.340
2023-01-06T01:27:16.293Z,0.219
2023-01-06T01:28:15.629Z,0.449
2023-01-06T01:29:15.770Z,0
2023-01-06T01:30:23.521Z,0.219
2023-01-06T01:31:16.479Z,0.109
2023-01-06T01:32:15.380Z,0
2023-01-06T01:33:16.074Z,0.219
2023-01-06T01:34:15.746Z,0.340
2023-01-06T01:35:15.418Z,0.340
2023-01-06T01:36:15.930Z,0
2023-01-06T01:37:16.211Z,0.109
2023-01-06T01:38:16.275Z,0.219
2023-01-06T01:39:15.995Z,0
2023-01-06T01:40:15.948Z,0.109
2023-01-06T01:41:16.206Z,0.109
2023-01-06T01:42:15.782Z,0.219
2023-01-06T01:43:15.790Z,0.109
2023-01-06T01:44:15.006Z,0
2023-01-06T01:45:15.958Z,0.109
2023-01-06T01:46:15.713Z,0
2023-01-06T01:47:15.918Z,0
2023-01-06T01:48:15.624Z,0.340
2023-01-06T01:49:15.221Z,0.219
2023-01-06T01:50:16.089Z,0.340
2023-01-06T01:51:15.469Z,0.109
2023-01-06T01:52:16.245Z,0.109
2023-01-06T01:53:15.954Z,0.109
2023-01-06T01:54:15.865Z,0.219
2023-01-06T01:55:15.837Z,0
2023-01-06T01:56:15.442Z,0.109
2023-01-06T01:57:16.294Z,0.109
2023-01-06T01:58:15.911Z,0.340
2023-01-06T01:59:16.197Z,0
2023-01-06T02:00:17.472Z,0
2023-01-06T02:01:15.569Z,0.109
2023-01-06T02:02:16.305Z,0.109
2023-01-06T02:03:15.435Z,0.219
2023-01-06T02:04:16.043Z,0.340
2023-01-06T02:05:15.997Z,0.109
2023-01-06T02:06:15.594Z,0.109
2023-01-06T02:07:16.051Z,0.109
2023-01-06T02:08:15.877Z,0
2023-01-06T02:09:15.894Z,0
2023-01-06T02:10:16.295Z,0
2023-01-06T02:11:15.326Z,0.449
2023-01-06T02:12:16.158Z,0.340
2023-01-06T02:13:15.750Z,0
2023-01-06T02:14:15.352Z,0.219
2023-01-06T02:15:16.333Z,0
2023-01-06T02:16:15.439Z,0
2023-01-06T02:17:15.444Z,0
2023-01-06T02:19:14.963Z,0.219
2023-01-06T02:20:15.531Z,0.219
2023-01-06T02:21:16.097Z,0.109
2023-01-06T02:22:15.257Z,0.109
2023-01-06T02:23:15.779Z,0.109
2023-01-06T02:24:15.307Z,0.109
2023-01-06T02:25:16.365Z,0.119
2023-01-06T02:26:15.791Z,0.100
2023-01-06T02:27:15.536Z,0
2023-01-06T02:28:15.079Z,0.340
2023-01-06T02:29:15.668Z,0
2023-01-06T02:30:16.480Z,0.219
2023-01-06T02:31:15.223Z,0
2023-01-06T02:32:16.081Z,0
2023-01-06T02:33:15.328Z,0.310
2023-01-06T02:34:15.861Z,0.119
2023-01-06T02:35:15.828Z,0
2023-01-06T02:36:15.817Z,0.109
2023-01-06T02:37:15.535Z,0
2023-01-06T02:38:16.051Z,0
2023-01-06T02:39:16.379Z,0.219
2023-01-06T02:40:16.445Z,0.680
2023-01-06T02:41:15.536Z,0
2023-01-06T02:42:15.876Z,0
2023-01-06T02:43:15.324Z,0
2023-01-06T02:44:15.583Z,0.219
2023-01-06T02:45:15.687Z,0.219
2023-01-06T02:46:15.113Z,0.109
2023-01-06T02:47:15.471Z,0.219
2023-01-06T02:48:15.866Z,0
2023-01-06T02:49:15.851Z,0.109
2023-01-06T02:50:15.132Z,0.109
2023-01-06T02:51:15.581Z,0.219
2023-01-06T02:52:15.534Z,0
2023-01-06T02:53:15.796Z,0.449
2023-01-06T02:54:15.159Z,0.109
2023-01-06T02:55:15.957Z,0.219
2023-01-06T02:56:15.881Z,0.560
2023-01-06T02:57:15.526Z,0
2023-01-06T02:58:16.051Z,0.109
2023-01-06T02:59:15.481Z,0.219
2023-01-06T03:00:16.522Z,0.219
2023-01-06T03:01:14.836Z,0.219
2023-01-06T03:02:15.372Z,0.340
2023-01-06T03:03:16.003Z,0.219
2023-01-06T03:04:15.499Z,0.109
2023-01-06T03:05:15.602Z,0
2023-01-06T03:06:15.549Z,0.449
2023-01-06T03:07:15.496Z,0.219
2023-01-06T03:08:16.157Z,0.109
2023-01-06T03:09:15.914Z,0
2023-01-06T03:10:15.402Z,0.109
2023-01-06T03:11:15.771Z,0.109
2023-01-06T03:12:15.877Z,0.109
2023-01-06T03:13:15.305Z,0.109
2023-01-06T03:14:15.913Z,0
2023-01-06T03:15:15.738Z,0.109
2023-01-06T03:16:15.362Z,0.109
2023-01-06T03:17:15.332Z,0.109
2023-01-06T03:18:15.898Z,0.219
2023-01-06T03:19:15.480Z,0.449
2023-01-06T03:20:16.331Z,0.219
2023-01-06T03:21:15.671Z,0
2023-01-06T03:22:15.239Z,0.219
2023-01-06T03:23:15.618Z,0.109
2023-01-06T03:24:15.705Z,0.109
2023-01-06T03:25:15.353Z,0.219
2023-01-06T03:26:15.628Z,0.109
2023-01-06T03:27:16.092Z,0.219
2023-01-06T03:28:15.201Z,0.340
2023-01-06T03:29:15.757Z,0
2023-01-06T03:30:15.388Z,0.109
2023-01-06T03:31:15.246Z,0
2023-01-06T03:32:16.039Z,0.109
2023-01-06T03:33:15.471Z,0
2023-01-06T03:34:15.948Z,0.109
2023-01-06T03:35:15.660Z,0.219
2023-01-06T03:36:15.656Z,0.219
2023-01-06T03:37:15.323Z,0.109
2023-01-06T03:38:15.646Z,0
2023-01-06T03:39:15.496Z,0
2023-01-06T03:40:16.356Z,0.340
2023-01-06T03:41:15.199Z,0.340
2023-01-06T03:42:27.448Z,0.340
2023-01-06T03:43:15.291Z,0
2023-01-06T03:44:15.789Z,0.239
2023-01-06T03:45:15.369Z,0
2023-01-06T03:46:15.754Z,0.219
2023-01-06T03:47:20.418Z,0.200
2023-01-06T03:48:15.495Z,0.109
2023-01-06T03:49:20.848Z,0.239
2023-01-06T03:50:15.215Z,0.109
2023-01-06T03:51:15.606Z,0.680
2023-01-06T03:52:15.674Z,0.310
2023-01-06T03:53:15.147Z,0.219
2023-01-06T03:54:15.941Z,0.119
2023-01-06T03:55:15.683Z,0.340
2023-01-06T03:56:14.983Z,0.449
2023-01-06T03:57:15.607Z,0.449
2023-01-06T03:58:15.796Z,0.449
2023-01-06T03:59:15.063Z,0
2023-01-06T04:00:16.531Z,0.340
2023-01-06T04:01:15.412Z,0.109
2023-01-06T04:02:15.443Z,0.449
2023-01-06T04:03:15.389Z,0.449
2023-01-06T04:04:15.873Z,0.219
2023-01-06T04:05:15.899Z,0.340
2023-01-06T04:06:15.283Z,0.340
2023-01-06T04:07:15.808Z,0.340
2023-01-06T04:08:15.374Z,0.219
2023-01-06T04:09:15.522Z,0.109
2023-01-06T04:10:16.133Z,0.109
2023-01-06T04:11:15.463Z,0.109
2023-01-06T04:12:15.801Z,0.109
2023-01-06T04:13:15.482Z,0.109
2023-01-06T04:14:15.800Z,0
2023-01-06T04:15:15.421Z,0.109
2023-01-06T04:16:14.342Z,0.219
2023-01-06T04:17:15.460Z,0
2023-01-06T04:18:15.616Z,0.449
2023-01-06T04:19:15.158Z,0.219
2023-01-06T04:20:15.296Z,0.219
2023-01-06T04:21:15.778Z,0.109
2023-01-06T04:22:14.852Z,0
2023-01-06T04:23:15.055Z,0.109
2023-01-06T04:24:15.406Z,0
2023-01-06T04:25:15.129Z,0.109
2023-01-06T04:26:15.521Z,0.449
2023-01-06T04:27:15.551Z,0.219
2023-01-06T04:28:15.945Z,0.219
2023-01-06T04:29:15.376Z,0.219
2023-01-06T04:30:16.026Z,0.449
2023-01-06T04:31:15.412Z,0
2023-01-06T04:32:15.779Z,0
2023-01-06T04:33:15.599Z,0
2023-01-06T04:34:15.143Z,0.109
2023-01-06T04:35:15.807Z,0.340
2023-01-06T04:36:15.685Z,0
2023-01-06T04:37:15.779Z,0.340
2023-01-06T04:38:15.348Z,0.109
2023-01-06T04:39:15.827Z,0.340
2023-01-06T04:40:14.975Z,0.560
2023-01-06T04:41:15.529Z,0.219
2023-01-06T04:42:15.819Z,0.109
2023-01-06T04:43:15.330Z,0
2023-01-06T04:44:15.912Z,0
2023-01-06T04:45:15.613Z,0.109
2023-01-06T04:46:15.310Z,0.219
2023-01-06T04:47:16.116Z,0.109
2023-01-06T04:48:15.863Z,0.449
2023-01-06T04:49:15.309Z,0.109
2023-01-06T04:50:15.944Z,0.109
2023-01-06T04:51:15.375Z,0.340
2023-01-06T04:52:15.819Z,0.109
2023-01-06T04:53:15.416Z,0.449
2023-01-06T04:54:15.701Z,0.109
2023-01-06T04:55:15.224Z,0.109
2023-01-06T04:56:15.592Z,0.680
2023-01-06T04:57:16.072Z,0.219
2023-01-06T04:58:14.978Z,0
2023-01-06T04:59:15.573Z,0.449
2023-01-06T05:00:17.127Z,0.109
2023-01-06T05:01:16.458Z,0.109
2023-01-06T05:02:15.973Z,0.219
2023-01-06T05:03:15.304Z,0.219
2023-01-06T05:04:15.373Z,0.119
2023-01-06T05:05:16.226Z,0
2023-01-06T05:06:15.716Z,0
2023-01-06T05:07:15.346Z,0.239
2023-01-06T05:08:16.067Z,0.219
2023-01-06T05:09:15.817Z,0.340
2023-01-06T05:10:15.406Z,0.310
2023-01-06T05:11:15.497Z,0.680
2023-01-06T05:12:15.159Z,0.239
2023-01-06T05:13:15.273Z,0.219
2023-01-06T05:14:17.084Z,0
2023-01-06T05:15:15.795Z,0.109
2023-01-06T05:16:15.779Z,0
2023-01-06T05:17:15.804Z,0.219
2023-01-06T05:18:15.656Z,0
2023-01-06T05:19:15.340Z,0
2023-01-06T05:20:15.851Z,0.109
2023-01-06T05:21:15.109Z,0.219
2023-01-06T05:22:15.130Z,0.219
2023-01-06T05:23:15.625Z,0.109
2023-01-06T05:24:15.800Z,0.109
2023-01-06T05:25:16.048Z,0
2023-01-06T05:26:15.769Z,0.219
2023-01-06T05:27:15.641Z,0.340
2023-01-06T05:28:15.593Z,0.560
2023-01-06T05:29:15.144Z,0
2023-01-06T05:30:16.035Z,0
2023-01-06T05:31:15.761Z,0
2023-01-06T05:32:15.752Z,0.109
2023-01-06T05:33:16.075Z,0.219
2023-01-06T05:34:15.805Z,0.219
2023-01-06T05:35:15.599Z,0
2023-01-06T05:36:15.117Z,0
2023-01-06T05:37:15.930Z,0
2023-01-06T05:38:15.430Z,0
2023-01-06T05:39:15.285Z,0.109
2023-01-06T05:40:16.000Z,0.219
2023-01-06T05:41:15.860Z,0.219
2023-01-06T05:42:15.796Z,0.340
2023-01-06T05:43:15.515Z,0.449
2023-01-06T05:44:15.745Z,0.219
2023-01-06T05:45:14.060Z,0.109
2023-01-06T05:46:15.703Z,0.109
2023-01-06T05:47:15.949Z,0.219
2023-01-06T05:48:15.049Z,0.219
2023-01-06T05:49:15.919Z,0.109
2023-01-06T05:50:15.548Z,0
2023-01-06T05:51:15.672Z,0
2023-01-06T05:52:15.183Z,0
2023-01-06T05:53:15.577Z,0.109
2023-01-06T05:54:14.842Z,0
2023-01-06T05:55:15.766Z,0.449
2023-01-06T05:56:15.456Z,0.340
2023-01-06T05:57:15.189Z,0.219
2023-01-06T05:58:15.401Z,0.340
2023-01-06T05:59:15.098Z,0.109
2023-01-06T06:00:16.913Z,0.449
2023-01-06T06:01:16.732Z,0.109
2023-01-06T06:02:15.796Z,0.340
2023-01-06T06:03:15.715Z,0.449
2023-01-06T06:04:15.191Z,0.219
2023-01-06T06:05:15.903Z,0
2023-01-06T06:06:15.440Z,0.219
2023-01-06T06:07:15.355Z,0.109
2023-01-06T06:08:15.950Z,0.219
2023-01-06T06:09:15.942Z,0.340
2023-01-06T06:10:15.722Z,0.219
2023-01-06T06:11:15.352Z,0.109
2023-01-06T06:12:15.966Z,0.109
2023-01-06T06:13:15.607Z,0.109
2023-01-06T06:14:17.189Z,0.219
2023-01-06T06:15:16.145Z,0.219
2023-01-06T06:16:20.754Z,0.219
2023-01-06T06:17:16.241Z,0.219
2023-01-06T06:18:16.148Z,0.109
2023-01-06T06:19:15.881Z,0.340
2023-01-06T06:20:15.501Z,0
2023-01-06T06:21:16.285Z,0
2023-01-06T06:22:16.183Z,0.109
2023-01-06T06:23:16.567Z,0
2023-01-06T06:24:16.091Z,0.100
2023-01-06T06:25:15.557Z,0.129
2023-01-06T06:26:16.047Z,0.340
2023-01-06T06:27:16.008Z,0.200
2023-01-06T06:28:15.929Z,0.560
2023-01-06T06:29:15.812Z,0.239
2023-01-06T06:30:16.139Z,0.109
2023-01-06T06:31:16.057Z,0.219
2023-01-06T06:32:16.040Z,0.340
2023-01-06T06:33:15.761Z,0.449
2023-01-06T06:34:15.197Z,0.109
2023-01-06T06:35:15.982Z,0.340
2023-01-06T06:36:16.035Z,0.109
2023-01-06T06:37:16.144Z,0
2023-01-06T06:38:15.665Z,0.340
2023-01-06T06:39:15.967Z,0.109
2023-01-06T06:40:15.582Z,0.109
2023-01-06T06:41:15.482Z,0.449
2023-01-06T06:42:16.013Z,0.340
2023-01-06T06:43:15.954Z,0
2023-01-06T06:44:15.243Z,0
2023-01-06T06:45:16.477Z,0
2023-01-06T06:46:15.279Z,0
2023-01-06T06:47:15.909Z,0
2023-01-06T06:48:15.035Z,0
2023-01-06T06:49:15.605Z,0
2023-01-06T06:50:15.052Z,0
2023-01-06T06:51:15.386Z,0
2023-01-06T06:52:16.058Z,0
2023-01-06T06:53:15.567Z,0
2023-01-06T06:54:15.843Z,0
2023-01-06T06:55:15.387Z,0
2023-01-06T06:56:15.588Z,13600
2023-01-06T06:57:15.572Z,0
2023-01-06T06:58:15.685Z,13600
2023-01-06T06:59:14.918Z,13600
2023-01-06T07:00:16.187Z,13600
2023-01-06T07:01:15.545Z,0
2023-01-06T07:02:15.543Z,0
2023-01-06T07:03:14.922Z,0.170
2023-01-06T07:04:15.925Z,0.050
2023-01-06T07:05:16.226Z,0.050
2023-01-06T07:06:16.206Z,0
2023-01-06T07:07:15.123Z,0.259
2023-01-06T07:08:15.519Z,0.680
2023-01-06T07:09:15.324Z,0.970
2023-01-06T07:10:16.078Z,0.670
2023-01-06T07:11:15.029Z,1.360
2023-01-06T07:12:15.581Z,1.990
2023-01-06T07:13:15.281Z,2.880
2023-01-06T07:14:15.606Z,4.429
2023-01-06T07:15:15.414Z,5.769
2023-01-06T07:16:15.491Z,7.099
2023-01-06T07:17:15.988Z,9.260
2023-01-06T07:18:15.773Z,10.93
2023-01-06T07:19:15.035Z,12.73
2023-01-06T07:20:15.878Z,14.44
2023-01-06T07:21:15.871Z,16.79
2023-01-06T07:22:15.518Z,19.76
2023-01-06T07:23:15.258Z,22.89
2023-01-06T07:24:15.967Z,25.79
2023-01-06T07:25:16.035Z,29.89
2023-01-06T07:26:15.481Z,35.5
2023-01-06T07:27:15.929Z,42
2023-01-06T07:28:15.537Z,48.29
2023-01-06T07:29:15.911Z,55
2023-01-06T07:30:16.058Z,62.59
2023-01-06T07:31:16.035Z,70.19
2023-01-06T07:32:15.674Z,80
2023-01-06T07:33:15.842Z,90
2023-01-06T07:34:15.472Z,100.5
2023-01-06T07:35:16.095Z,107.4
2023-01-06T07:36:15.797Z,113.9
2023-01-06T07:37:16.005Z,121
2023-01-06T07:38:15.748Z,129
2023-01-06T07:39:15.849Z,138
2023-01-06T07:40:16.189Z,149
2023-01-06T07:41:15.691Z,159.1
2023-01-06T07:42:15.423Z,168
2023-01-06T07:43:15.531Z,177
2023-01-06T07:44:17.181Z,188
2023-01-06T07:45:15.833Z,202
2023-01-06T07:46:15.928Z,218
2023-01-06T07:47:15.988Z,235
2023-01-06T07:48:15.942Z,256
2023-01-06T07:49:15.945Z,275
2023-01-06T07:50:16.068Z,289
2023-01-06T07:51:15.697Z,308
2023-01-06T07:52:15.929Z,329
2023-01-06T07:53:16.342Z,350
2023-01-06T07:54:15.467Z,370
2023-01-06T07:55:15.546Z,389
2023-01-06T07:56:15.810Z,412
2023-01-06T07:57:17.922Z,438
2023-01-06T07:58:15.524Z,464
2023-01-06T07:59:15.489Z,483
2023-01-06T08:00:16.805Z,499
2023-01-06T08:01:15.426Z,513
2023-01-06T08:02:15.658Z,527
2023-01-06T08:03:15.915Z,538
2023-01-06T08:04:15.638Z,547
2023-01-06T08:05:16.001Z,558
2023-01-06T08:06:15.946Z,570
2023-01-06T08:07:16.204Z,583
2023-01-06T08:08:16.529Z,596
2023-01-06T08:09:15.676Z,607
2023-01-06T08:10:15.579Z,617
2023-01-06T08:11:15.571Z,628
2023-01-06T08:12:15.738Z,638
2023-01-06T08:13:15.712Z,650
2023-01-06T08:14:15.558Z,668
2023-01-06T08:15:15.752Z,688
2023-01-06T08:16:15.675Z,707
2023-01-06T08:17:15.836Z,725
2023-01-06T08:18:15.639Z,744
2023-01-06T08:19:15.504Z,770
2023-01-06T08:20:15.298Z,820
2023-01-06T08:21:16.137Z,900
2023-01-06T08:22:15.875Z,1000
2023-01-06T08:23:16.129Z,1100
2023-01-06T08:24:15.872Z,1200
2023-01-06T08:25:16.197Z,1310
2023-01-06T08:26:16.057Z,1360
2023-01-06T08:27:15.375Z,1330
2023-01-06T08:28:16.036Z,1200
2023-01-06T08:29:15.516Z,1130
2023-01-06T08:30:15.883Z,1124
2023-01-06T08:31:16.072Z,1110
2023-01-06T08:32:16.077Z,1100
2023-01-06T08:33:21.222Z,1300
2023-01-06T08:34:15.967Z,1422
2023-01-06T08:35:21.334Z,1370
2023-01-06T08:36:15.457Z,1310
2023-01-06T08:37:15.664Z,1300
2023-01-06T08:38:15.850Z,1470
2023-01-06T08:39:15.505Z,1470
2023-01-06T08:40:15.373Z,1440
2023-01-06T08:41:15.435Z,1477
2023-01-06T08:42:15.991Z,1500
2023-01-06T08:43:15.992Z,1500
2023-01-06T08:44:15.850Z,1800
2023-01-06T08:45:16.554Z,1800
2023-01-06T08:46:15.207Z,1713
2023-01-06T08:47:15.962Z,1600
2023-01-06T08:48:16.025Z,1500
2023-01-06T08:49:24.227Z,1600
2023-01-06T08:50:16.271Z,1300
2023-01-06T08:51:15.874Z,1100
2023-01-06T08:52:15.622Z,1128
2023-01-06T08:53:16.029Z,1140
2023-01-06T08:54:16.036Z,1200
2023-01-06T08:55:29.976Z,1400
2023-01-06T08:56:15.661Z,1510
2023-01-06T08:57:29.660Z,1430
2023-01-06T08:58:15.130Z,1420
2023-01-06T08:59:16.179Z,1500
2023-01-06T09:00:17.504Z,1700
2023-01-06T09:01:15.716Z,1856
2023-01-06T09:02:16.303Z,1860
2023-01-06T09:03:15.309Z,1900
2023-01-06T09:04:16.372Z,2000
2023-01-06T09:05:16.697Z,1800
2023-01-06T09:06:15.714Z,1790
2023-01-06T09:07:15.866Z,1600
2023-01-06T09:08:15.542Z,1300
2023-01-06T09:09:15.533Z,1218
2023-01-06T09:10:15.661Z,1228
2023-01-06T09:11:16.182Z,1237.
2023-01-06T09:12:16.149Z,1210
2023-01-06T09:13:15.714Z,1100
2023-01-06T09:14:15.324Z,900
2023-01-06T09:15:15.569Z,922
2023-01-06T09:16:15.710Z,880
2023-01-06T09:17:16.067Z,800
2023-01-06T09:18:15.496Z,740
2023-01-06T09:19:15.992Z,702
2023-01-06T09:20:16.303Z,720
2023-01-06T09:21:15.448Z,770
2023-01-06T09:22:15.472Z,830
2023-01-06T09:23:15.699Z,890
2023-01-06T09:24:15.488Z,940
2023-01-06T09:25:16.071Z,972
2023-01-06T09:26:16.034Z,960
2023-01-06T09:27:15.863Z,1000
2023-01-06T09:28:15.861Z,1100
2023-01-06T09:29:15.853Z,1180
2023-01-06T09:30:16.155Z,1100
2023-01-06T09:31:15.271Z,1000
2023-01-06T09:32:15.400Z,1800
2023-01-06T09:33:15.619Z,1900
2023-01-06T09:34:15.489Z,2100
2023-01-06T09:35:16.236Z,2300
2023-01-06T09:36:15.918Z,2500
2023-01-06T09:37:15.822Z,2570
2023-01-06T09:38:15.606Z,2300
2023-01-06T09:39:15.624Z,2320
2023-01-06T09:40:15.526Z,2400
2023-01-06T09:41:15.620Z,2700
2023-01-06T09:42:15.067Z,2700
2023-01-06T09:43:15.739Z,2900
2023-01-06T09:44:15.311Z,2990
2023-01-06T09:45:15.589Z,2000
2023-01-06T09:46:15.301Z,2420
2023-01-06T09:47:15.795Z,2440
2023-01-06T09:48:15.871Z,2500
2023-01-06T09:49:15.708Z,3000
2023-01-06T09:50:15.890Z,3000
2023-01-06T09:51:15.682Z,4200
2023-01-06T09:52:15.597Z,4200
2023-01-06T09:53:15.667Z,4200
2023-01-06T09:54:16.084Z,4000
2023-01-06T09:55:15.745Z,4900
2023-01-06T09:56:15.784Z,4000
2023-01-06T09:57:15.816Z,4000
2023-01-06T09:58:15.870Z,3840
2023-01-06T09:59:16.113Z,3902
2023-01-06T10:00:19.039Z,3000
2023-01-06T10:01:20.356Z,3000
2023-01-06T10:02:16.551Z,2900
2023-01-06T10:03:15.993Z,3000
2023-01-06T10:04:16.373Z,3400
2023-01-06T10:05:17.421Z,3400
2023-01-06T10:06:17.311Z,3200
2023-01-06T10:07:16.498Z,2900
2023-01-06T10:08:17.300Z,2910
2023-01-06T10:09:16.279Z,3020
2023-01-06T10:10:16.156Z,2900
2023-01-06T10:11:16.263Z,2700
2023-01-06T10:12:16.002Z,2500
2023-01-06T10:13:16.098Z,2200
2023-01-06T10:14:15.892Z,2000
2023-01-06T10:15:16.312Z,1940
2023-01-06T10:16:16.181Z,1920
2023-01-06T10:17:16.066Z,1899.
2023-01-06T10:18:15.946Z,1920
2023-01-06T10:19:16.498Z,1993
2023-01-06T10:20:16.908Z,2000
2023-01-06T10:21:16.413Z,2000
2023-01-06T10:22:15.991Z,2000
2023-01-06T10:23:15.867Z,3600
2023-01-06T10:24:15.943Z,3000
2023-01-06T10:25:16.570Z,3000
2023-01-06T10:26:15.686Z,3700
2023-01-06T10:27:16.177Z,3800
2023-01-06T10:28:16.610Z,3000
2023-01-06T10:29:15.720Z,4000
2023-01-06T10:30:16.235Z,4800
2023-01-06T10:31:16.300Z,4000
2023-01-06T10:32:16.263Z,4100
2023-01-06T10:33:16.089Z,4000
2023-01-06T10:34:16.019Z,4800
2023-01-06T10:35:16.496Z,4000
2023-01-06T10:36:15.618Z,4300
2023-01-06T10:37:16.295Z,4000
2023-01-06T10:38:15.826Z,4600
2023-01-06T10:39:16.164Z,4500
2023-01-06T10:40:16.201Z,4000
2023-01-06T10:41:15.872Z,0
2023-01-06T10:42:15.920Z,0
2023-01-06T10:43:15.825Z,2000
2023-01-06T10:44:16.365Z,2060
2023-01-06T10:45:16.210Z,2000
2023-01-06T10:46:15.682Z,2000
2023-01-06T10:47:16.324Z,2900
2023-01-06T10:48:16.197Z,3000
2023-01-06T10:49:16.161Z,4000
2023-01-06T10:50:16.019Z,4300
2023-01-06T10:51:15.809Z,4160
2023-01-06T10:52:15.700Z,4200
2023-01-06T10:53:15.751Z,4000
2023-01-06T10:54:15.658Z,5000
2023-01-06T10:55:16.159Z,0
2023-01-06T10:56:16.016Z,7000
2023-01-06T10:57:16.335Z,7000
2023-01-06T10:58:15.853Z,0
2023-01-06T10:59:16.284Z,4000
2023-01-06T11:00:22.715Z,4000
2023-01-06T11:01:16.459Z,3800
2023-01-06T11:02:21.511Z,4000
2023-01-06T11:03:32.369Z,3700
2023-01-06T11:04:16.084Z,0
2023-01-06T11:05:16.050Z,5000
2023-01-06T11:06:15.961Z,4000
2023-01-06T11:07:16.252Z,0
2023-01-06T11:08:15.671Z,6000
2023-01-06T11:09:16.052Z,0
2023-01-06T11:10:15.983Z,5300
2023-01-06T11:11:26.849Z,5000
2023-01-06T11:12:16.069Z,0
2023-01-06T11:13:15.996Z,7000
2023-01-06T11:14:15.941Z,8400
2023-01-06T11:15:17.068Z,0
2023-01-06T11:16:30.084Z,0
2023-01-06T11:17:16.397Z,4000
2023-01-06T11:18:29.764Z,4000
2023-01-06T11:19:16.271Z,4000
2023-01-06T11:20:16.124Z,3000
2023-01-06T11:21:16.261Z,3500
2023-01-06T11:22:15.718Z,0
2023-01-06T11:23:16.475Z,5000
2023-01-06T11:24:15.823Z,5000
2023-01-06T11:25:16.397Z,4000
2023-01-06T11:26:16.056Z,4000
2023-01-06T11:27:16.165Z,0
2023-01-06T11:28:15.924Z,2000
2023-01-06T11:29:16.502Z,2000
2023-01-06T11:30:16.067Z,2200
2023-01-06T11:31:16.548Z,2000
2023-01-06T11:32:16.149Z,0
2023-01-06T11:33:16.607Z,0
2023-01-06T11:34:15.410Z,0
2023-01-06T11:35:16.306Z,0
2023-01-06T11:36:15.973Z,2000
2023-01-06T11:37:16.490Z,2002
2023-01-06T11:38:16.008Z,2000
2023-01-06T11:39:16.078Z,2000
2023-01-06T11:40:16.379Z,3000
2023-01-06T11:41:16.059Z,4000
2023-01-06T11:42:16.092Z,4000
2023-01-06T11:43:16.277Z,4500
2023-01-06T11:44:15.630Z,3000
2023-01-06T11:45:16.176Z,3400
2023-01-06T11:46:16.064Z,0
2023-01-06T11:47:16.221Z,4000
2023-01-06T11:48:16.247Z,5000
2023-01-06T11:49:17.178Z,5000
2023-01-06T11:50:16.213Z,5000
2023-01-06T11:51:16.359Z,6000
2023-01-06T11:52:16.078Z,5000
2023-01-06T11:53:16.476Z,6000
2023-01-06T11:54:15.424Z,6000
2023-01-06T11:55:16.131Z,5000
2023-01-06T11:56:15.777Z,5000
2023-01-06T11:57:15.653Z,5000
2023-01-06T11:58:15.257Z,6000
2023-01-06T11:59:16.157Z,6000
2023-01-06T12:00:16.546Z,7000
2023-01-06T12:01:16.093Z,7000
2023-01-06T12:02:15.876Z,7900
2023-01-06T12:03:16.358Z,7800
2023-01-06T12:04:15.828Z,8000
2023-01-06T12:05:16.284Z,7000
2023-01-06T12:06:16.415Z,6000
2023-01-06T12:07:16.127Z,6300
2023-01-06T12:08:16.117Z,6000
2023-01-06T12:09:16.415Z,0
2023-01-06T12:10:16.433Z,0
2023-01-06T12:11:15.818Z,2000
2023-01-06T12:12:16.099Z,2000
2023-01-06T12:13:16.215Z,2800
2023-01-06T12:14:27.459Z,2400
2023-01-06T12:15:16.257Z,2500
2023-01-06T12:16:16.324Z,3000
2023-01-06T12:17:16.161Z,2900
2023-01-06T12:18:16.001Z,2870
2023-01-06T12:19:16.181Z,3000
2023-01-06T12:20:16.061Z,3200
2023-01-06T12:21:16.244Z,3400
2023-01-06T12:22:16.164Z,3600
2023-01-06T12:23:16.071Z,3000
2023-01-06T12:24:16.069Z,2000
2023-01-06T12:25:16.760Z,2630
2023-01-06T12:26:15.988Z,2800
2023-01-06T12:27:16.117Z,3000
2023-01-06T12:28:16.332Z,0
2023-01-06T12:29:16.423Z,0
2023-01-06T12:30:16.799Z,6400
2023-01-06T12:31:16.053Z,6400
2023-01-06T12:32:16.481Z,6000
2023-01-06T12:33:16.119Z,7000
2023-01-06T12:34:16.266Z,7000
2023-01-06T12:35:16.641Z,7000
2023-01-06T12:36:16.135Z,7000
2023-01-06T12:37:16.461Z,8000
2023-01-06T12:38:16.457Z,8800
2023-01-06T12:39:16.283Z,0
2023-01-06T12:41:15.967Z,6000
2023-01-06T12:42:16.058Z,6300
2023-01-06T12:43:16.363Z,6000
2023-01-06T12:44:16.347Z,7100
2023-01-06T12:45:16.311Z,6000
2023-01-06T12:46:16.402Z,5000
2023-01-06T12:47:15.875Z,5500
2023-01-06T12:48:16.108Z,5000
2023-01-06T12:49:16.371Z,4000
2023-01-06T12:50:16.726Z,4000
2023-01-06T12:51:16.216Z,4870
2023-01-06T12:52:16.009Z,4700
2023-01-06T12:53:21.032Z,4690
2023-01-06T12:54:15.914Z,4800
2023-01-06T12:55:15.991Z,0
2023-01-06T12:56:15.977Z,0
2023-01-06T12:57:15.732Z,8000
2023-01-06T12:58:15.669Z,8400
2023-01-06T12:59:15.916Z,8500
2023-01-06T13:00:17.527Z,8400
2023-01-06T13:01:16.198Z,8360
2023-01-06T13:02:16.262Z,0
2023-01-06T13:03:16.282Z,6000
2023-01-06T13:04:15.682Z,6400
2023-01-06T13:05:16.183Z,6000
2023-01-06T13:06:15.824Z,6000
2023-01-06T13:07:16.039Z,6000
2023-01-06T13:08:16.180Z,0
2023-01-06T13:09:16.258Z,4000
2023-01-06T13:10:16.086Z,4600
2023-01-06T13:11:16.623Z,5000
2023-01-06T13:12:15.976Z,5000
2023-01-06T13:13:16.063Z,4900
2023-01-06T13:14:15.973Z,5000
2023-01-06T13:15:16.794Z,6000
2023-01-06T13:16:16.033Z,5000
2023-01-06T13:17:16.210Z,0
2023-01-06T13:18:16.051Z,4000
2023-01-06T13:19:16.316Z,4000
2023-01-06T13:20:15.760Z,4800
2023-01-06T13:21:16.247Z,5000
2023-01-06T13:22:16.081Z,5000
2023-01-06T13:23:16.142Z,6000
2023-01-06T13:24:15.949Z,7000
2023-01-06T13:25:16.316Z,7400
2023-01-06T13:26:16.238Z,6000
2023-01-06T13:27:16.431Z,6000
2023-01-06T13:28:15.781Z,5000
2023-01-06T13:29:16.273Z,5000
2023-01-06T13:30:17.169Z,4800
2023-01-06T13:31:16.394Z,5000
2023-01-06T13:32:15.977Z,0